Terminal Aerodrome Forecast
Issued by NWS

Home | Current Version | Previous Version | Text Only | Print | Product List | Glossary On
Versions: 1 2 3 4 5 6 7 8 9 10 11 12 13 14 15 16 17 18 19 20 21 22
000
FTUS43 KLSX 191700
TAFSUS
TAF
KSUS 191738Z 1918/2018 08004KT 6SM HZ BKN018 OVC050
      TEMPO 1918/1919 SCT015 OVC050
     FM192200 VRB03KT P6SM BKN020 OVC040
     FM200600 00000KT 3SM BR BKN015 OVC030
     FM200900 00000KT 2SM BR SCT006 OVC015
     FM201700 17005KT 5SM HZ BKN020 OVC050=

USA.gov is the U.S. government's official web portal to all federal, state and local government web resources and services.